East Danville, Ohio
Current Conditions -  °F | °C
As of 7:54 AM on Thursday 30 Oct 2014 (Local Time) from KILN Reporting Station
Overcast Overcast  
Wind Chill: 38°   Ceiling: 4200
Heat Index: 42°   Visibility: 10mi
Dew Point: 34°   Wind: 7mph
Humidity: 73%   Direction: 330°NNW
Pressure: 30.14"   Gusts: NA
Location:  39.1546°N, 83.569°W
Report Text: KILN 301154Z AUTO 33006KT 10SM OVC042 06/01 A3014 RMK AO2 SLP223 T00560011 10067 20056 51010
Loading
Personal Weather Stations






























Interactive Weather Map
Tropical Storm Tracking
New forecast layout! Learn more

10-Day Weather Forecast

Advertisements
Track Severe Weather on mobile